FOOL

Libreville Leon M'ba International Airport

Libreville, Gabon
METAR FOOL 160630Z 16006KT 8000 TS FEW005 SCT008 FEW018CB 25/24 Q1014 NOSIG
Observed Flight Rules
Dec-16 @ 06:30 UTC (14 minutes ago) Marginal Visual Flight Rules
Wind Visibility Clouds Conditions
160° at 6 knots 7,998 meters
  • Few at 500' AGL
  • Scattered at 800' AGL
  • Few at 1,800' AGL
  • Thunderstorm
Temperatures Readings
Current 25°C / 77°F
Dewpoint 24°C / 75°F
Humidity 94%
Altimeter 29.94" Hg
Pressure 1014 hPa
Elevation 15
METAR FOOL 160630Z 16006KT 8000 TS FEW005 SCT008 FEW018CB 25/24 Q1014 NOSIG
Observed Flight Rules
Dec-16 @ 06:30 UTC
(14 minutes ago)
MVFR
Wind Visibility
160° at 6 knots 7,998 meters
Clouds
  • Few at 500' AGL
  • Scattered at 800' AGL
  • Few at 1,800' AGL
Conditions
  • Thunderstorm
Temperature Dewpoint
25°C / 77°F 24°C / 75°F
Humidity Altimeter Pressure
94% 29.94" Hg 1014 hPa